首页
METAR-TAF:

METAR-TAF

机场 :

Bradford, 宾夕法尼亚州, 美国

纬度: 41-47-55N, 经度: 078-38-09W, 海拔: 653米

当前天气观测

该预报发布于40分钟前的06:53 UTC
静风
温度 15°C
湿度 94%
气压 1013 hPa
能見度: 16.1公里
少量云层高于1000英尺

METAR: KBFD 230653Z AUTO 00000KT 10SM FEW010 15/14 A2992 RMK AO2 SLP123 T01500144

时间: 03:33 (07:33 UTC)

预报

该预报发布于1小时和45分钟前的05:48 UTC
预报有效从23日的 06点(UTC)到 24日的 06点(UTC)
风速节,风向
能見度: 10公里
多云层高于2500英尺
从 23日的 0900点(UTC)
风速节,风向
能見度: 0.8公里
阴天层高于300英尺
从 23日的 1100点(UTC)
风速3节,风向多变
能見度: 8.0公里
散云层高于300英尺
轻雾
从 23日的 1400点(UTC)
风速7节,风向北转西北
能見度: 10公里
多云层高于3500英尺

TAF: KBFD 230548Z 2306/2406 00000KT P6SM BKN025 FM230900 00000KT 1/2SM FG OVC003 FM231100 VRB03KT 5SM BR SCT003 FM231400 34007KT P6SM BKN035

超过4000个机场的气象观测和天气预报(METAR&TAF报告)。

可查询的气象台以黄色和红色小点在地图上表示。

将鼠标移到小点上方,可查看气象台名称。

然后点击查看天气观测和预报。

如需切换地图:点击带黑十字的绿色按钮放大地图;点击带横线的绿色按钮缩小地图;或者点击绿色箭头查看邻近地区的地图。


METAR-TAF: